Hlavní strana
METAR-TAF:

METAR-TAF

Letiště :

Kindersley, Saskatchewan, Kanada

zeměpisná šířka: 51-31N, zeměpisná délka: 109-10W, výška: 694 m

Aktuální stav počasí

Zpráva byla vytvořena před 48 minutami, v 17:00 UTC
Východní vítr 9 kt
Teplota -20°C
Vlhkost vzduchu 64%
Tlak 1023 hPa
Viditelnost: 24.1 km
Oblačno až skoro zataženo ve výšce 9700 ft
Oblačno až skoro zataženo ve výšce 26000 ft

METAR: CYKY 181700Z 10009KT 15SM BKN097 BKN260 M20/M25 A3020 RMK AC7CI1 CI TR SLP297

Čas: 11:48 (17:48 UTC)


TAF: chybějící

Stav a předpovědi počasí z více než 4 000 letišť (zprávy METAR a TAF).

Červené a žluté tečky na mapě představují dostupné meteorologické stanice.

Když kurzor umístíte na tečku, zobrazí se název stanice.

Pak kliknutím zobrazíte stav a předpověď počasí.

Chcete-li změnit mapu, kliknutím na zelené tlačítko se znaménkem +mapu přiblížíte, kliknutím na zelené tlačítko se znaménkem – mapu oddálíte a kliknutím na zelené šipky přejdete na sousední mapy.


METAR-TAF: